createdAt,value
2018-01-12T00:00:03.885Z,2.03
2018-01-12T00:01:03.863Z,2.02
2018-01-12T00:02:03.834Z,1.84
2018-01-12T00:03:03.814Z,1.95
2018-01-12T00:04:03.791Z,2.02
2018-01-12T00:05:03.779Z,2.05
2018-01-12T00:06:03.750Z,2.06
2018-01-12T00:07:03.728Z,2.18
2018-01-12T00:08:03.706Z,2.21
2018-01-12T00:09:03.685Z,2.35
2018-01-12T00:10:03.663Z,2.43
2018-01-12T00:11:03.641Z,2.53
2018-01-12T00:12:03.617Z,2.60
2018-01-12T00:13:03.598Z,2.59
2018-01-12T00:14:03.584Z,2.64
2018-01-12T00:15:03.554Z,2.71
2018-01-12T00:16:03.538Z,2.79
2018-01-12T00:17:03.508Z,2.77
2018-01-12T00:18:03.550Z,2.79
2018-01-12T00:19:03.475Z,2.78
2018-01-12T00:20:03.451Z,2.89
2018-01-12T00:21:03.429Z,2.84
2018-01-12T00:22:03.404Z,2.93
2018-01-12T00:23:03.378Z,2.95
2018-01-12T00:24:03.358Z,2.96
2018-01-12T00:25:03.336Z,3.00
2018-01-12T00:26:03.315Z,3.00
2018-01-12T00:27:03.296Z,3.05
2018-01-12T00:28:03.278Z,3.11
2018-01-12T00:29:03.253Z,3.17
2018-01-12T00:30:03.229Z,3.13
2018-01-12T00:31:03.205Z,3.10
2018-01-12T00:32:03.186Z,3.03
2018-01-12T00:33:03.166Z,2.85
2018-01-12T00:34:03.140Z,2.79
2018-01-12T00:35:03.118Z,2.72
2018-01-12T00:36:03.106Z,2.67
2018-01-12T00:37:03.075Z,2.75
2018-01-12T00:38:03.054Z,2.71
2018-01-12T00:39:03.033Z,2.75
2018-01-12T00:40:03.015Z,2.81
2018-01-12T00:41:02.988Z,2.78
2018-01-12T00:42:02.966Z,2.82
2018-01-12T00:43:02.950Z,2.81
2018-01-12T00:44:02.929Z,2.78
2018-01-12T00:45:02.906Z,2.82
2018-01-12T00:46:02.880Z,2.77
2018-01-12T00:47:02.864Z,2.71
2018-01-12T00:48:02.835Z,2.79
2018-01-12T00:49:02.830Z,2.85
2018-01-12T00:50:02.795Z,2.84
2018-01-12T00:51:02.775Z,2.93
2018-01-12T00:52:02.755Z,2.78
2018-01-12T00:53:02.728Z,2.89
2018-01-12T00:54:02.715Z,2.87
2018-01-12T00:55:02.685Z,2.96
2018-01-12T00:56:02.663Z,2.90
2018-01-12T00:57:02.641Z,2.92
2018-01-12T00:58:02.619Z,2.92
2018-01-12T00:59:02.597Z,2.93
2018-01-12T01:00:02.580Z,2.96
2018-01-12T01:01:02.553Z,2.95
2018-01-12T01:02:02.540Z,2.97
2018-01-12T01:03:02.515Z,2.90
2018-01-12T01:04:02.490Z,2.92
2018-01-12T01:05:02.465Z,2.92
2018-01-12T01:06:02.446Z,2.97
2018-01-12T01:07:02.426Z,2.90
2018-01-12T01:08:02.409Z,2.97
2018-01-12T01:09:02.386Z,2.87
2018-01-12T01:10:02.365Z,2.85
2018-01-12T01:11:02.336Z,2.77
2018-01-12T01:12:02.317Z,2.74
2018-01-12T01:13:02.295Z,2.67
2018-01-12T01:14:02.276Z,2.67
2018-01-12T01:15:02.253Z,2.69
2018-01-12T01:16:02.230Z,2.67
2018-01-12T01:17:02.213Z,2.66
2018-01-12T01:18:02.185Z,2.72
2018-01-12T01:19:02.165Z,2.71
2018-01-12T01:20:02.142Z,2.66
2018-01-12T01:21:02.118Z,2.82
2018-01-12T01:22:02.100Z,2.78
2018-01-12T01:23:02.078Z,2.78
2018-01-12T01:24:02.057Z,2.81
2018-01-12T01:25:02.030Z,2.81
2018-01-12T01:26:02.012Z,2.84
2018-01-12T01:27:01.992Z,2.84
2018-01-12T01:28:01.969Z,2.84
2018-01-12T01:29:01.945Z,2.85
2018-01-12T01:30:01.926Z,2.85
2018-01-12T01:31:01.904Z,2.85
2018-01-12T01:32:01.881Z,2.89
2018-01-12T01:33:01.865Z,2.97
2018-01-12T01:34:01.840Z,2.95
2018-01-12T01:35:01.815Z,2.95
2018-01-12T01:36:01.794Z,2.97
2018-01-12T01:37:01.773Z,2.99
2018-01-12T01:38:01.753Z,3.08
2018-01-12T01:39:01.733Z,3.11
2018-01-12T01:40:01.715Z,3.11
2018-01-12T01:41:01.695Z,3.10
2018-01-12T01:42:01.671Z,3.13
2018-01-12T01:43:01.642Z,3.10
2018-01-12T01:44:01.625Z,3.03
2018-01-12T01:45:01.605Z,2.99
2018-01-12T01:46:01.578Z,2.99
2018-01-12T01:47:01.569Z,2.95
2018-01-12T01:48:01.536Z,2.87
2018-01-12T01:49:01.515Z,2.90
2018-01-12T01:50:01.490Z,2.97
2018-01-12T01:51:01.474Z,2.97
2018-01-12T01:52:01.451Z,3.03
2018-01-12T01:53:01.426Z,3.02
2018-01-12T01:54:01.403Z,3.11
2018-01-12T01:55:01.386Z,3.13
2018-01-12T01:56:01.363Z,3.08
2018-01-12T01:57:01.341Z,3.17
2018-01-12T01:58:01.325Z,3.21
2018-01-12T01:59:01.300Z,3.18
2018-01-12T02:00:01.277Z,3.20
2018-01-12T02:01:01.255Z,3.29
2018-01-12T02:02:01.235Z,3.29
2018-01-12T02:03:01.212Z,3.31
2018-01-12T02:04:01.196Z,3.32
2018-01-12T02:05:01.169Z,3.33
2018-01-12T02:06:01.145Z,3.17
2018-01-12T02:07:01.124Z,3.13
2018-01-12T02:08:01.105Z,2.97
2018-01-12T02:09:01.082Z,2.87
2018-01-12T02:10:01.060Z,2.87
2018-01-12T02:11:01.039Z,2.92
2018-01-12T02:12:01.020Z,2.95
2018-01-12T02:13:00.998Z,2.93
2018-01-12T02:14:00.976Z,2.93
2018-01-12T02:15:00.956Z,2.90
2018-01-12T02:16:00.935Z,2.99
2018-01-12T02:17:00.914Z,2.93
2018-01-12T02:18:00.887Z,2.87
2018-01-12T02:19:00.867Z,2.97
2018-01-12T02:20:00.845Z,2.93
2018-01-12T02:21:00.824Z,2.95
2018-01-12T02:22:00.803Z,3.06
2018-01-12T02:23:00.777Z,3.05
2018-01-12T02:24:00.761Z,3.10
2018-01-12T02:25:00.736Z,3.08
2018-01-12T02:26:00.711Z,3.06
2018-01-12T02:27:00.695Z,3.08
2018-01-12T02:28:00.676Z,3.20
2018-01-12T02:29:00.650Z,3.17
2018-01-12T02:30:00.625Z,3.14
2018-01-12T02:31:00.606Z,3.10
2018-01-12T02:32:00.584Z,3.13
2018-01-12T02:33:00.562Z,3.15
2018-01-12T02:34:00.539Z,3.15
2018-01-12T02:35:00.522Z,3.21
2018-01-12T02:36:00.498Z,3.20
2018-01-12T02:37:00.477Z,3.18
2018-01-12T02:38:00.449Z,3.28
2018-01-12T02:39:00.438Z,3.29
2018-01-12T02:40:00.414Z,3.29
2018-01-12T02:41:00.390Z,3.23
2018-01-12T02:42:00.367Z,3.31
2018-01-12T02:43:00.359Z,3.29
2018-01-12T02:44:00.326Z,3.33
2018-01-12T02:45:00.301Z,3.28
2018-01-12T02:46:00.278Z,3.33
2018-01-12T02:47:00.262Z,3.33
2018-01-12T02:48:00.235Z,3.39
2018-01-12T02:49:00.212Z,3.39
2018-01-12T02:50:00.192Z,3.39
2018-01-12T02:51:00.174Z,3.42
2018-01-12T02:52:00.149Z,3.47
2018-01-12T02:53:00.136Z,3.43
2018-01-12T02:54:00.125Z,3.42
2018-01-12T02:55:00.086Z,3.47
2018-01-12T02:56:00.068Z,3.43
2018-01-12T02:57:00.042Z,3.43
2018-01-12T02:58:00.020Z,3.47
2018-01-12T02:59:00.005Z,3.48
2018-01-12T02:59:59.988Z,3.36
2018-01-12T03:00:59.955Z,3.47
2018-01-12T03:01:59.933Z,3.42
2018-01-12T03:02:59.913Z,3.43
2018-01-12T03:03:59.896Z,3.47
2018-01-12T03:04:59.877Z,3.43
2018-01-12T03:05:59.847Z,3.40
2018-01-12T03:06:59.826Z,3.47
2018-01-12T03:07:59.807Z,3.45
2018-01-12T03:08:59.786Z,3.50
2018-01-12T03:09:59.762Z,3.45
2018-01-12T03:10:59.740Z,3.45
2018-01-12T03:11:59.718Z,3.45
2018-01-12T03:12:59.698Z,3.33
2018-01-12T03:13:59.674Z,3.40
2018-01-12T03:14:59.651Z,3.36
2018-01-12T03:15:59.630Z,3.47
2018-01-12T03:16:59.611Z,3.52
2018-01-12T03:17:59.588Z,3.43
2018-01-12T03:18:59.566Z,3.47
2018-01-12T03:19:59.545Z,3.45
2018-01-12T03:20:59.522Z,3.51
2018-01-12T03:21:59.500Z,3.57
2018-01-12T03:22:59.484Z,3.47
2018-01-12T03:23:59.460Z,3.52
2018-01-12T03:24:59.439Z,3.55
2018-01-12T03:25:59.415Z,3.57
2018-01-12T03:26:59.395Z,3.57
2018-01-12T03:27:59.374Z,3.54
2018-01-12T03:28:59.349Z,3.50
2018-01-12T03:29:59.333Z,3.47
2018-01-12T03:30:59.311Z,3.57
2018-01-12T03:31:59.288Z,3.51
2018-01-12T03:32:59.265Z,3.52
2018-01-12T03:33:59.245Z,3.50
2018-01-12T03:34:59.227Z,3.52
2018-01-12T03:35:59.205Z,3.58
2018-01-12T03:36:59.186Z,3.60
2018-01-12T03:37:59.158Z,3.52
2018-01-12T03:38:59.133Z,3.50
2018-01-12T03:39:59.114Z,3.47
2018-01-12T03:40:59.096Z,3.48
2018-01-12T03:41:59.070Z,3.50
2018-01-12T03:42:59.061Z,3.51
2018-01-12T03:43:59.032Z,3.50
2018-01-12T03:44:59.008Z,3.52
2018-01-12T03:45:58.987Z,3.50
2018-01-12T03:46:58.964Z,3.54
2018-01-12T03:47:58.945Z,3.47
2018-01-12T03:48:58.921Z,3.47
2018-01-12T03:49:58.908Z,3.45
2018-01-12T03:50:58.881Z,3.47
2018-01-12T03:51:58.858Z,3.54
2018-01-12T03:52:58.835Z,3.50
2018-01-12T03:53:58.814Z,3.48
2018-01-12T03:54:58.794Z,3.43
2018-01-12T03:55:58.776Z,3.51
2018-01-12T03:56:58.755Z,3.48
2018-01-12T03:57:58.728Z,3.47
2018-01-12T03:58:58.711Z,3.52
2018-01-12T03:59:58.687Z,3.50
2018-01-12T04:00:58.670Z,3.48
2018-01-12T04:01:58.646Z,3.55
2018-01-12T04:03:58.603Z,3.47
2018-01-12T04:04:58.584Z,3.51
2018-01-12T04:05:58.565Z,3.54
2018-01-12T04:06:58.536Z,3.51
2018-01-12T04:07:58.519Z,3.52
2018-01-12T04:08:58.492Z,3.55
2018-01-12T04:09:58.478Z,3.54
2018-01-12T04:10:58.454Z,3.48
2018-01-12T04:11:58.430Z,3.57
2018-01-12T04:12:58.422Z,3.55
2018-01-12T04:13:58.392Z,3.54
2018-01-12T04:14:58.373Z,3.51
2018-01-12T04:15:58.347Z,3.50
2018-01-12T04:16:58.328Z,3.51
2018-01-12T04:17:58.302Z,3.50
2018-01-12T04:18:58.284Z,3.54
2018-01-12T04:19:58.259Z,3.50
2018-01-12T04:20:58.236Z,3.47
2018-01-12T04:21:58.215Z,3.62
2018-01-12T04:22:58.196Z,3.52
2018-01-12T04:23:58.175Z,3.58
2018-01-12T04:24:58.156Z,3.62
2018-01-12T04:25:58.134Z,3.66
2018-01-12T04:26:58.114Z,3.66
2018-01-12T04:27:58.088Z,3.65
2018-01-12T04:28:58.064Z,3.62
2018-01-12T04:29:58.044Z,3.69
2018-01-12T04:30:58.025Z,3.78
2018-01-12T04:31:58.004Z,3.75
2018-01-12T04:32:57.979Z,3.76
2018-01-12T04:33:57.960Z,3.69
2018-01-12T04:34:57.940Z,3.73
2018-01-12T04:35:57.921Z,3.76
2018-01-12T04:36:57.896Z,3.73
2018-01-12T04:37:57.874Z,3.80
2018-01-12T04:38:57.855Z,3.79
2018-01-12T04:39:57.843Z,3.75
2018-01-12T04:40:57.810Z,3.80
2018-01-12T04:41:57.793Z,3.79
2018-01-12T04:42:57.768Z,3.76
2018-01-12T04:43:57.745Z,3.75
2018-01-12T04:44:57.726Z,3.73
2018-01-12T04:45:57.706Z,3.66
2018-01-12T04:46:57.683Z,3.62
2018-01-12T04:47:57.661Z,3.65
2018-01-12T04:48:57.640Z,3.61
2018-01-12T04:49:57.620Z,3.61
2018-01-12T04:50:57.597Z,3.60
2018-01-12T04:51:57.589Z,3.52
2018-01-12T04:52:57.555Z,3.60
2018-01-12T04:53:57.533Z,3.60
2018-01-12T04:54:57.510Z,3.58
2018-01-12T04:55:57.493Z,3.60
2018-01-12T04:56:57.468Z,3.50
2018-01-12T04:57:57.447Z,3.50
2018-01-12T04:58:57.426Z,3.47
2018-01-12T04:59:57.405Z,3.47
2018-01-12T05:00:57.383Z,3.50
2018-01-12T05:01:57.366Z,3.45
2018-01-12T05:02:57.345Z,3.42
2018-01-12T05:03:57.321Z,3.43
2018-01-12T05:04:57.296Z,3.47
2018-01-12T05:05:57.277Z,3.39
2018-01-12T05:06:57.254Z,3.36
2018-01-12T05:07:57.232Z,3.47
2018-01-12T05:08:57.213Z,3.43
2018-01-12T05:09:57.195Z,3.43
2018-01-12T05:10:57.168Z,3.47
2018-01-12T05:11:57.147Z,3.45
2018-01-12T05:12:57.126Z,3.45
2018-01-12T05:13:57.106Z,3.42
2018-01-12T05:14:57.086Z,3.48
2018-01-12T05:15:57.071Z,3.39
2018-01-12T05:16:57.043Z,3.48
2018-01-12T05:17:57.024Z,3.51
2018-01-12T05:18:56.996Z,3.42
2018-01-12T05:19:56.976Z,3.47
2018-01-12T05:20:56.956Z,3.39
2018-01-12T05:21:56.984Z,3.50
2018-01-12T05:22:56.912Z,3.47
2018-01-12T05:23:56.891Z,3.50
2018-01-12T05:24:56.866Z,3.45
2018-01-12T05:25:56.845Z,3.48
2018-01-12T05:26:56.824Z,3.48
2018-01-12T05:27:56.804Z,3.48
2018-01-12T05:28:56.784Z,3.45
2018-01-12T05:29:56.765Z,3.47
2018-01-12T05:30:56.739Z,3.43
2018-01-12T05:31:56.717Z,3.52
2018-01-12T05:32:56.694Z,3.47
2018-01-12T05:33:56.676Z,3.50
2018-01-12T05:34:56.677Z,3.47
2018-01-12T05:35:56.630Z,3.45
2018-01-12T05:36:56.612Z,3.47
2018-01-12T05:37:56.585Z,3.43
2018-01-12T05:38:56.564Z,3.45
2018-01-12T05:39:56.553Z,3.47
2018-01-12T05:40:56.527Z,3.52
2018-01-12T05:41:56.501Z,3.45
2018-01-12T05:42:56.477Z,3.47
2018-01-12T05:43:56.465Z,3.47
2018-01-12T05:44:56.439Z,3.45
2018-01-12T05:45:56.415Z,3.48
2018-01-12T05:46:56.396Z,3.45
2018-01-12T05:47:56.384Z,3.52
2018-01-12T05:48:56.356Z,3.45
2018-01-12T05:49:56.336Z,3.42
2018-01-12T05:50:56.315Z,3.40
2018-01-12T05:51:56.286Z,3.47
2018-01-12T05:52:56.266Z,3.47
2018-01-12T05:53:56.308Z,3.47
2018-01-12T05:54:56.226Z,3.57
2018-01-12T05:55:56.210Z,3.47
2018-01-12T05:56:56.179Z,3.48
2018-01-12T05:57:56.157Z,3.48
2018-01-12T05:58:56.136Z,3.40
2018-01-12T05:59:56.114Z,3.42
2018-01-12T06:00:56.095Z,3.50
2018-01-12T06:01:56.074Z,3.47
2018-01-12T06:02:56.051Z,3.45
2018-01-12T06:03:56.029Z,3.40
2018-01-12T06:04:56.013Z,3.52
2018-01-12T06:05:55.985Z,3.40
2018-01-12T06:06:55.963Z,3.45
2018-01-12T06:07:55.946Z,3.47
2018-01-12T06:08:55.924Z,3.47
2018-01-12T06:09:55.900Z,3.54
2018-01-12T06:10:55.876Z,3.51
2018-01-12T06:11:55.861Z,3.45
2018-01-12T06:12:55.835Z,3.54
2018-01-12T06:13:55.809Z,3.51
2018-01-12T06:14:55.800Z,3.51
2018-01-12T06:15:55.776Z,3.58
2018-01-12T06:16:55.746Z,3.51
2018-01-12T06:17:55.728Z,3.51
2018-01-12T06:18:55.708Z,3.47
2018-01-12T06:19:55.685Z,3.48
2018-01-12T06:20:55.662Z,3.54
2018-01-12T06:21:55.641Z,3.51
2018-01-12T06:22:55.616Z,3.48
2018-01-12T06:23:55.599Z,3.48
2018-01-12T06:24:55.574Z,3.52
2018-01-12T06:25:55.562Z,3.50
2018-01-12T06:26:55.534Z,3.52
2018-01-12T06:27:55.514Z,3.50
2018-01-12T06:28:55.487Z,3.47
2018-01-12T06:29:55.471Z,3.51
2018-01-12T06:30:55.446Z,3.51
2018-01-12T06:31:55.431Z,3.47
2018-01-12T06:32:55.412Z,3.48
2018-01-12T06:33:55.385Z,3.51
2018-01-12T06:34:55.359Z,3.55
2018-01-12T06:35:55.344Z,3.58
2018-01-12T06:36:55.327Z,3.58
2018-01-12T06:37:55.298Z,3.52
2018-01-12T06:38:55.273Z,3.55
2018-01-12T06:39:55.253Z,3.65
2018-01-12T06:40:55.234Z,3.50
2018-01-12T06:41:55.210Z,3.52
2018-01-12T06:42:55.190Z,3.47
2018-01-12T06:43:55.166Z,3.51
2018-01-12T06:44:55.154Z,3.48
2018-01-12T06:45:55.125Z,3.52
2018-01-12T06:46:55.104Z,3.45
2018-01-12T06:47:55.082Z,3.43
2018-01-12T06:48:55.059Z,3.42
2018-01-12T06:49:55.036Z,3.51
2018-01-12T06:50:55.016Z,3.45
2018-01-12T06:51:54.995Z,3.47
2018-01-12T06:52:54.972Z,3.43
2018-01-12T06:53:54.961Z,3.47
2018-01-12T06:54:54.931Z,3.50
2018-01-12T06:55:54.916Z,3.47
2018-01-12T06:56:54.887Z,3.50
2018-01-12T06:57:54.866Z,3.58
2018-01-12T06:58:54.849Z,3.54
2018-01-12T06:59:54.821Z,3.52
2018-01-12T07:00:54.804Z,3.58
2018-01-12T07:01:54.780Z,3.62
2018-01-12T07:02:54.757Z,3.66
2018-01-12T07:03:54.736Z,3.60
2018-01-12T07:04:54.715Z,3.68
2018-01-12T07:05:54.692Z,3.70
2018-01-12T07:06:54.680Z,3.69
2018-01-12T07:07:54.648Z,3.68
2018-01-12T07:08:54.632Z,3.70
2018-01-12T07:09:54.605Z,3.75
2018-01-12T07:10:54.592Z,3.69
2018-01-12T07:11:54.565Z,3.73
2018-01-12T07:12:54.548Z,3.72
2018-01-12T07:13:54.526Z,3.76
2018-01-12T07:14:54.505Z,3.73
2018-01-12T07:15:54.479Z,3.78
2018-01-12T07:16:54.456Z,3.79
2018-01-12T07:17:54.438Z,3.80
2018-01-12T07:18:54.419Z,3.86
2018-01-12T07:19:54.395Z,3.83
2018-01-12T07:20:54.373Z,3.91
2018-01-12T07:21:54.349Z,3.76
2018-01-12T07:22:54.329Z,3.78
2018-01-12T07:23:54.305Z,3.72
2018-01-12T07:24:54.286Z,3.69
2018-01-12T07:25:54.267Z,3.60
2018-01-12T07:26:54.250Z,3.58
2018-01-12T07:27:54.227Z,3.62
2018-01-12T07:28:54.207Z,3.61
2018-01-12T07:29:54.180Z,3.62
2018-01-12T07:30:54.156Z,3.70
2018-01-12T07:31:54.137Z,3.73
2018-01-12T07:32:54.115Z,3.75
2018-01-12T07:33:54.094Z,3.76
2018-01-12T07:34:54.080Z,3.78
2018-01-12T07:35:54.055Z,3.73
2018-01-12T07:36:54.031Z,3.75
2018-01-12T07:37:54.008Z,3.73
2018-01-12T07:38:53.985Z,3.72
2018-01-12T07:39:53.968Z,3.69
2018-01-12T07:40:53.950Z,3.52
2018-01-12T07:41:53.933Z,3.55
2018-01-12T07:42:53.903Z,3.50
2018-01-12T07:43:53.881Z,3.50
2018-01-12T07:44:53.856Z,3.50
2018-01-12T07:45:53.835Z,3.35
2018-01-12T07:46:53.813Z,3.47
2018-01-12T07:47:53.830Z,3.43
2018-01-12T07:48:53.773Z,3.39
2018-01-12T07:49:53.753Z,3.43
2018-01-12T07:50:53.730Z,3.47
2018-01-12T07:51:53.711Z,3.47
2018-01-12T07:52:53.686Z,3.36
2018-01-12T07:53:53.666Z,3.47
2018-01-12T07:54:53.649Z,3.47
2018-01-12T07:55:53.623Z,3.42
2018-01-12T07:56:53.598Z,3.45
2018-01-12T07:57:53.583Z,3.51
2018-01-12T07:58:53.556Z,3.51
2018-01-12T07:59:53.537Z,3.43
2018-01-12T08:00:53.520Z,3.48
2018-01-12T08:01:53.496Z,3.33
2018-01-12T08:02:53.472Z,3.33
2018-01-12T08:03:53.454Z,3.45
2018-01-12T08:04:53.425Z,3.35
2018-01-12T08:05:53.406Z,3.45
2018-01-12T08:06:53.385Z,3.39
2018-01-12T08:07:53.363Z,3.50
2018-01-12T08:08:53.348Z,3.42
2018-01-12T08:09:53.316Z,3.40
2018-01-12T08:10:53.295Z,3.40
2018-01-12T08:11:53.282Z,3.47
2018-01-12T08:12:53.255Z,3.33
2018-01-12T08:13:53.255Z,3.45
2018-01-12T08:14:53.218Z,3.47
2018-01-12T08:15:53.193Z,3.48
2018-01-12T08:16:53.166Z,3.48
2018-01-12T08:17:53.144Z,3.43
2018-01-12T08:18:53.123Z,3.50
2018-01-12T08:19:53.106Z,3.47
2018-01-12T08:20:53.094Z,3.47
2018-01-12T08:21:53.060Z,3.51
2018-01-12T08:22:53.067Z,3.42
2018-01-12T08:23:53.038Z,3.48
2018-01-12T08:24:53.002Z,3.48
2018-01-12T08:25:53.324Z,3.39
2018-01-12T08:27:53.252Z,3.50
2018-01-12T08:28:53.237Z,3.50
2018-01-12T08:29:52.888Z,3.54
2018-01-12T08:30:52.907Z,3.47
2018-01-12T08:31:53.048Z,3.52
2018-01-12T08:32:53.136Z,3.54
2018-01-12T08:33:53.115Z,3.48
2018-01-12T08:35:53.071Z,3.52
2018-01-12T08:36:53.452Z,3.50
2018-01-12T08:37:52.727Z,3.50
2018-01-12T08:38:52.706Z,3.48
2018-01-12T08:39:53.395Z,3.48
2018-01-12T08:40:52.646Z,3.48
2018-01-12T08:41:52.623Z,3.54
2018-01-12T08:42:52.609Z,3.51
2018-01-12T08:43:52.584Z,3.45
2018-01-12T08:44:52.554Z,3.47
2018-01-12T08:45:52.537Z,3.55
2018-01-12T08:46:52.513Z,3.55
2018-01-12T08:47:52.488Z,3.51
2018-01-12T08:48:52.471Z,3.48
2018-01-12T08:49:52.445Z,3.47
2018-01-12T08:50:52.426Z,3.51
2018-01-12T08:51:52.405Z,3.48
2018-01-12T08:52:52.389Z,3.51
2018-01-12T08:53:52.362Z,3.57
2018-01-12T08:54:52.339Z,3.54
2018-01-12T08:55:53.261Z,3.69
2018-01-12T08:56:52.618Z,3.66
2018-01-12T08:58:52.256Z,3.60
2018-01-12T08:59:52.233Z,3.70
2018-01-12T09:03:52.463Z,3.73
2018-01-12T09:04:52.451Z,3.66
2018-01-12T09:05:52.105Z,3.72
2018-01-12T09:06:52.414Z,3.73
2018-01-12T09:07:52.370Z,3.60
2018-01-12T09:08:52.377Z,3.68
2018-01-12T09:09:52.022Z,3.72
2018-01-12T09:10:52.333Z,3.75
2018-01-12T09:11:52.295Z,3.70
2018-01-12T09:12:52.252Z,3.72
2018-01-12T09:13:51.925Z,3.62
2018-01-12T09:14:52.223Z,3.65
2018-01-12T09:15:51.885Z,3.69
2018-01-12T09:16:51.862Z,3.61
2018-01-12T09:17:51.845Z,3.70
2018-01-12T09:18:52.143Z,3.61
2018-01-12T09:19:51.796Z,3.75
2018-01-12T09:20:52.088Z,3.69
2018-01-12T09:21:51.963Z,3.72
2018-01-12T09:22:51.731Z,3.70
2018-01-12T09:23:51.711Z,3.72
2018-01-12T09:24:51.693Z,3.76
2018-01-12T09:25:51.676Z,3.76
2018-01-12T09:26:51.669Z,3.76
2018-01-12T09:27:51.625Z,3.78
2018-01-12T09:28:51.639Z,3.78
2018-01-12T09:29:51.593Z,3.76
2018-01-12T09:30:51.564Z,3.72
2018-01-12T09:31:51.538Z,3.83
2018-01-12T09:32:51.532Z,3.80
2018-01-12T09:33:51.496Z,3.79
2018-01-12T09:34:51.472Z,3.88
2018-01-12T09:35:51.447Z,3.88
2018-01-12T09:36:51.430Z,3.80
2018-01-12T09:37:51.428Z,3.91
2018-01-12T09:38:51.386Z,3.86
2018-01-12T09:39:51.361Z,3.93
2018-01-12T09:40:51.348Z,3.86
2018-01-12T09:42:51.618Z,3.86
2018-01-12T09:43:51.275Z,3.90
2018-01-12T09:44:51.259Z,3.96
2018-01-12T09:45:51.235Z,3.88
2018-01-12T09:46:51.211Z,3.98
2018-01-12T09:47:51.199Z,3.90
2018-01-12T09:48:51.164Z,3.93
2018-01-12T09:49:51.153Z,3.90
2018-01-12T09:50:51.124Z,3.87
2018-01-12T09:51:51.105Z,3.93
2018-01-12T09:52:51.084Z,3.96
2018-01-12T09:53:51.060Z,3.87
2018-01-12T09:54:51.041Z,3.93
2018-01-12T09:55:51.022Z,3.96
2018-01-12T09:56:50.997Z,3.97
2018-01-12T09:57:50.976Z,3.90
2018-01-12T09:58:50.954Z,3.97
2018-01-12T09:59:50.933Z,3.87
2018-01-12T10:00:50.909Z,3.96
2018-01-12T10:01:50.892Z,3.98
2018-01-12T10:02:50.866Z,3.90
2018-01-12T10:03:50.849Z,3.90
2018-01-12T10:04:50.829Z,3.86
2018-01-12T10:05:50.806Z,3.96
2018-01-12T10:06:50.783Z,3.93
2018-01-12T10:07:50.760Z,4.04
2018-01-12T10:08:50.741Z,3.94
2018-01-12T10:09:50.760Z,4.04
2018-01-12T10:10:50.696Z,4.05
2018-01-12T10:11:50.675Z,4.06
2018-01-12T10:12:50.654Z,4.02
2018-01-12T10:13:50.632Z,4.06
2018-01-12T10:14:50.609Z,4.04
2018-01-12T10:15:50.588Z,4.06
2018-01-12T10:16:50.565Z,4.05
2018-01-12T10:17:50.567Z,4.04
2018-01-12T10:18:50.525Z,4.08
2018-01-12T10:19:50.512Z,4.08
2018-01-12T10:20:50.512Z,4.05
2018-01-12T10:21:50.458Z,4.04
2018-01-12T10:22:50.449Z,4.04
2018-01-12T10:23:50.417Z,4.12
2018-01-12T10:24:50.395Z,4.12
2018-01-12T10:25:50.378Z,4.14
2018-01-12T10:26:50.358Z,4.15
2018-01-12T10:27:50.331Z,4.09
2018-01-12T10:28:50.312Z,4.11
2018-01-12T10:29:50.292Z,4.12
2018-01-12T10:30:50.268Z,4.23
2018-01-12T10:31:50.246Z,4.22
2018-01-12T10:32:50.238Z,4.22
2018-01-12T10:33:50.206Z,4.18
2018-01-12T10:34:50.190Z,4.24
2018-01-12T10:35:50.174Z,4.29
2018-01-12T10:36:50.135Z,4.26
2018-01-12T10:37:50.115Z,4.16
2018-01-12T10:38:50.096Z,4.26
2018-01-12T10:39:50.076Z,4.22
2018-01-12T10:40:50.061Z,4.27
2018-01-12T10:41:50.032Z,4.26
2018-01-12T10:42:50.014Z,4.30
2018-01-12T10:43:49.991Z,4.23
2018-01-12T10:44:49.974Z,4.27
2018-01-12T10:45:49.947Z,4.26
2018-01-12T10:46:49.926Z,4.30
2018-01-12T10:47:49.905Z,4.15
2018-01-12T10:48:49.895Z,4.26
2018-01-12T10:49:49.861Z,4.27
2018-01-12T10:50:49.846Z,4.27
2018-01-12T10:51:49.823Z,4.15
2018-01-12T10:52:49.799Z,4.33
2018-01-12T10:53:49.777Z,4.32
2018-01-12T10:54:49.759Z,4.27
2018-01-12T10:55:49.735Z,4.32
2018-01-12T10:56:49.711Z,4.14
2018-01-12T10:57:49.696Z,4.27
2018-01-12T10:58:49.674Z,4.16
2018-01-12T10:59:49.649Z,4.26
2018-01-12T11:00:49.632Z,4.27
2018-01-12T11:01:49.609Z,4.23
2018-01-12T11:02:49.592Z,4.34
2018-01-12T11:03:49.565Z,4.26
2018-01-12T11:04:49.546Z,4.32
2018-01-12T11:05:49.522Z,4.30
2018-01-12T11:06:49.501Z,4.32
2018-01-12T11:07:49.480Z,4.27
2018-01-12T11:08:49.456Z,4.32
2018-01-12T11:09:49.435Z,4.30
2018-01-12T11:10:49.423Z,4.29
2018-01-12T11:11:49.395Z,4.26
2018-01-12T11:12:49.371Z,4.29
2018-01-12T11:13:49.355Z,4.29
2018-01-12T11:14:49.334Z,4.30
2018-01-12T11:15:49.313Z,4.27
2018-01-12T11:16:49.286Z,4.29
2018-01-12T11:17:49.272Z,4.30
2018-01-12T11:18:49.244Z,4.33
2018-01-12T11:19:49.224Z,4.33
2018-01-12T11:20:49.204Z,4.34
2018-01-12T11:21:49.187Z,4.36
2018-01-12T11:22:49.162Z,4.33
2018-01-12T11:23:49.151Z,4.29
2018-01-12T11:24:49.114Z,4.34
2018-01-12T11:25:49.095Z,4.40
2018-01-12T11:26:49.078Z,4.32
2018-01-12T11:27:49.056Z,4.34
2018-01-12T11:28:49.036Z,4.32
2018-01-12T11:29:49.014Z,4.32
2018-01-12T11:30:48.989Z,4.34
2018-01-12T11:31:48.979Z,4.40
2018-01-12T11:32:48.954Z,4.34
2018-01-12T11:33:48.936Z,4.30
2018-01-12T11:34:48.908Z,4.32
2018-01-12T11:35:48.884Z,4.33
2018-01-12T11:36:48.863Z,4.34
2018-01-12T11:37:48.864Z,4.36
2018-01-12T11:38:48.824Z,4.40
2018-01-12T11:39:48.801Z,4.33
2018-01-12T11:40:48.785Z,4.32
2018-01-12T11:41:48.761Z,4.30
2018-01-12T11:42:48.740Z,4.36
2018-01-12T11:43:48.740Z,4.30
2018-01-12T11:44:48.696Z,4.34
2018-01-12T11:45:48.671Z,4.30
2018-01-12T11:46:48.651Z,4.33
2018-01-12T11:47:48.644Z,4.41
2018-01-12T11:48:48.612Z,4.51
2018-01-12T11:49:48.586Z,4.42
2018-01-12T11:50:48.565Z,4.34
2018-01-12T11:51:48.544Z,4.37
2018-01-12T11:52:48.525Z,4.42
2018-01-12T11:53:48.508Z,4.41
2018-01-12T11:54:48.485Z,4.50
2018-01-12T11:55:48.460Z,4.47
2018-01-12T11:56:48.444Z,4.47
2018-01-12T11:57:48.424Z,4.45
2018-01-12T11:58:48.396Z,4.44
2018-01-12T11:59:48.375Z,4.45
2018-01-12T12:00:48.359Z,4.41
2018-01-12T12:01:48.332Z,4.44
2018-01-12T12:02:48.320Z,4.48
2018-01-12T12:03:48.300Z,4.42
2018-01-12T12:04:48.275Z,4.47
2018-01-12T12:05:48.256Z,4.45
2018-01-12T12:06:48.230Z,4.51
2018-01-12T12:07:48.216Z,4.47
2018-01-12T12:08:48.186Z,4.45
2018-01-12T12:09:48.167Z,4.44
2018-01-12T12:10:48.143Z,4.52
2018-01-12T12:11:48.126Z,4.55
2018-01-12T12:12:48.112Z,4.47
2018-01-12T12:13:48.088Z,4.50
2018-01-12T12:14:48.060Z,4.48
2018-01-12T12:15:48.041Z,4.50
2018-01-12T12:16:48.025Z,4.51
2018-01-12T12:17:47.997Z,4.54
2018-01-12T12:18:47.981Z,4.45
2018-01-12T12:19:47.957Z,4.55
2018-01-12T12:20:47.935Z,4.52
2018-01-12T12:21:47.912Z,4.59
2018-01-12T12:22:47.896Z,4.51
2018-01-12T12:23:47.880Z,4.55
2018-01-12T12:24:47.851Z,4.58
2018-01-12T12:25:47.832Z,4.54
2018-01-12T12:26:47.807Z,4.66
2018-01-12T12:27:47.788Z,4.55
2018-01-12T12:28:47.762Z,4.66
2018-01-12T12:29:47.743Z,4.67
2018-01-12T12:30:47.723Z,4.63
2018-01-12T12:31:47.700Z,4.66
2018-01-12T12:32:47.687Z,4.78
2018-01-12T12:33:47.658Z,4.73
2018-01-12T12:34:47.646Z,4.73
2018-01-12T12:35:47.619Z,4.73
2018-01-12T12:36:47.595Z,4.66
2018-01-12T12:37:47.575Z,4.73
2018-01-12T12:38:47.556Z,4.72
2018-01-12T12:39:47.535Z,4.77
2018-01-12T12:40:47.516Z,4.73
2018-01-12T12:41:47.492Z,4.75
2018-01-12T12:42:47.479Z,4.77
2018-01-12T12:43:47.452Z,4.65
2018-01-12T12:44:47.428Z,4.69
2018-01-12T12:45:47.408Z,4.72
2018-01-12T12:46:47.387Z,4.77
2018-01-12T12:47:47.365Z,4.66
2018-01-12T12:48:47.345Z,4.67
2018-01-12T12:49:47.324Z,4.73
2018-01-12T12:50:47.305Z,4.75
2018-01-12T12:51:47.287Z,4.75
2018-01-12T12:52:47.274Z,4.80
2018-01-12T12:53:47.284Z,4.84
2018-01-12T12:54:47.222Z,4.75
2018-01-12T12:55:47.205Z,4.80
2018-01-12T12:56:47.174Z,4.78
2018-01-12T12:57:47.165Z,4.66
2018-01-12T12:58:47.135Z,4.70
2018-01-12T12:59:47.115Z,4.70
2018-01-12T13:00:47.144Z,4.80
2018-01-12T13:01:47.071Z,4.70
2018-01-12T13:02:47.076Z,4.80
2018-01-12T13:03:47.039Z,4.86
2018-01-12T13:04:47.008Z,4.77
2018-01-12T13:05:46.991Z,4.80
2018-01-12T13:06:46.969Z,4.85
2018-01-12T13:07:46.957Z,4.80
2018-01-12T13:08:46.929Z,4.84
2018-01-12T13:09:46.913Z,4.82
2018-01-12T13:10:46.888Z,4.78
2018-01-12T13:11:46.863Z,4.91
2018-01-12T13:12:46.844Z,4.85
2018-01-12T13:13:46.826Z,4.80
2018-01-12T13:14:46.805Z,4.80
2018-01-12T13:15:46.779Z,4.91
2018-01-12T13:16:46.762Z,4.89
2018-01-12T13:17:46.738Z,4.84
2018-01-12T13:18:46.721Z,4.86
2018-01-12T13:19:46.706Z,4.89
2018-01-12T13:20:46.675Z,4.92
2018-01-12T13:21:46.655Z,4.89
2018-01-12T13:22:46.635Z,4.88
2018-01-12T13:23:46.611Z,4.91
2018-01-12T13:24:46.606Z,4.88
2018-01-12T13:25:46.576Z,4.88